Terminal Aerodrome Forecast
Issued by NWS

Home | Current Version | Previous Version | Text Only | Print | Product List | Glossary On
Versions: 1 2 3 4 5 6 7 8 9 10 11 12 13 14 15 16 17 18 19 20 21 22 23 24 25 26
000
FTUS44 KOUN 301919 AAA
TAFWWR
TAF AMD
KWWR 301919Z 3019/3118 20011KT P6SM SCT009 OVC025
      TEMPO 3019/3020 4SM -TSRA BKN005 BKN018CB
     FM302100 02015G23KT P6SM OVC025
     FM310300 01008KT P6SM BKN035=

USA.gov is the U.S. government's official web portal to all federal, state and local government web resources and services.